createdAt,value
2022-08-26T00:00:04.538Z,23.83
2022-08-26T00:00:39.861Z,23.94
2022-08-26T00:01:14.955Z,23.83
2022-08-26T00:01:50.245Z,23.83
2022-08-26T00:02:25.598Z,23.89
2022-08-26T00:03:00.635Z,23.86
2022-08-26T00:03:36.001Z,23.97
2022-08-26T00:04:11.190Z,23.97
2022-08-26T00:04:46.442Z,24.02
2022-08-26T00:05:21.966Z,23.94
2022-08-26T00:05:57.403Z,23.89
2022-08-26T00:06:32.528Z,23.90
2022-08-26T00:07:08.035Z,23.86
2022-08-26T00:07:50.278Z,23.85
2022-08-26T00:08:25.277Z,23.87
2022-08-26T00:09:00.602Z,23.87
2022-08-26T00:09:37.259Z,23.86
2022-08-26T00:10:11.438Z,23.83
2022-08-26T00:10:46.967Z,23.80
2022-08-26T00:11:26.934Z,23.82
2022-08-26T00:11:57.350Z,23.82
2022-08-26T00:12:37.474Z,23.83
2022-08-26T00:13:07.849Z,23.83
2022-08-26T00:13:47.909Z,23.80
2022-08-26T00:14:18.222Z,23.85
2022-08-26T00:14:53.322Z,23.85
2022-08-26T00:15:28.429Z,23.80
2022-08-26T00:16:03.847Z,23.89
2022-08-26T00:16:40.978Z,23.79
2022-08-26T00:17:14.098Z,23.72
2022-08-26T00:17:49.092Z,23.79
2022-08-26T00:18:24.172Z,23.67
2022-08-26T00:18:59.413Z,23.77
2022-08-26T00:19:34.700Z,23.72
2022-08-26T00:20:09.798Z,23.72
2022-08-26T00:20:44.973Z,23.70
2022-08-26T00:21:20.285Z,23.70
2022-08-26T00:21:55.810Z,23.71
2022-08-26T00:22:30.773Z,23.71
2022-08-26T00:23:06.275Z,23.71
2022-08-26T00:23:41.589Z,23.75
2022-08-26T00:24:16.682Z,23.71
2022-08-26T00:24:52.285Z,23.65
2022-08-26T00:25:27.705Z,23.62
2022-08-26T00:26:03.214Z,23.70
2022-08-26T00:26:38.301Z,23.67
2022-08-26T00:27:13.489Z,23.71
2022-08-26T00:27:48.723Z,23.67
2022-08-26T00:28:24.110Z,23.70
2022-08-26T00:28:59.384Z,23.67
2022-08-26T00:29:35.546Z,23.67
2022-08-26T00:30:09.907Z,23.65
2022-08-26T00:30:45.509Z,23.65
2022-08-26T00:31:20.747Z,23.70
2022-08-26T00:31:56.274Z,23.71
2022-08-26T00:32:31.522Z,23.68
2022-08-26T00:33:07.150Z,23.72
2022-08-26T00:33:42.136Z,23.64
2022-08-26T00:34:19.356Z,23.65
2022-08-26T00:34:53.009Z,23.67
2022-08-26T00:35:28.062Z,23.65
2022-08-26T00:36:03.407Z,23.68
2022-08-26T00:36:38.721Z,23.65
2022-08-26T00:37:16.129Z,23.70
2022-08-26T00:37:48.951Z,23.71
2022-08-26T00:38:24.137Z,23.67
2022-08-26T00:38:59.266Z,23.64
2022-08-26T00:39:34.842Z,23.62
2022-08-26T00:40:10.222Z,23.61
2022-08-26T00:40:45.404Z,23.60
2022-08-26T00:41:21.045Z,23.60
2022-08-26T00:41:56.123Z,23.61
2022-08-26T00:42:31.445Z,23.61
2022-08-26T00:43:07.247Z,23.58
2022-08-26T00:43:47.405Z,23.61
2022-08-26T00:44:17.505Z,23.57
2022-08-26T00:44:52.768Z,23.53
2022-08-26T00:45:27.964Z,23.53
2022-08-26T00:46:03.476Z,23.43
2022-08-26T00:46:38.635Z,23.40
2022-08-26T00:47:13.839Z,23.40
2022-08-26T00:47:49.018Z,23.45
2022-08-26T00:48:24.308Z,23.39
2022-08-26T00:48:59.615Z,23.32
2022-08-26T00:49:34.818Z,23.29
2022-08-26T00:50:10.020Z,23.23
2022-08-26T00:50:45.318Z,23.34
2022-08-26T00:51:20.938Z,23.20
2022-08-26T00:51:56.246Z,23.20
2022-08-26T00:52:31.843Z,23.19
2022-08-26T00:53:07.324Z,23.23
2022-08-26T00:53:42.553Z,23.20
2022-08-26T00:54:17.559Z,23.19
2022-08-26T00:54:53.167Z,23.24
2022-08-26T00:55:37.714Z,23.20
2022-08-26T00:56:03.653Z,23.31
2022-08-26T00:56:38.911Z,23.24
2022-08-26T00:57:16.110Z,23.19
2022-08-26T00:57:49.434Z,23.24
2022-08-26T00:58:24.917Z,23.31
2022-08-26T00:59:00.121Z,23.29
2022-08-26T00:59:35.312Z,23.23
2022-08-26T01:00:10.907Z,23.24
2022-08-26T01:00:46.149Z,23.24
2022-08-26T01:01:23.041Z,23.39
2022-08-26T01:01:56.751Z,23.32
2022-08-26T01:02:32.097Z,23.26
2022-08-26T01:03:07.628Z,23.31
2022-08-26T01:03:42.937Z,23.32
2022-08-26T01:04:18.133Z,23.31
2022-08-26T01:04:55.850Z,23.23
2022-08-26T01:05:29.176Z,23.29
2022-08-26T01:06:04.419Z,23.29
2022-08-26T01:06:39.814Z,23.31
2022-08-26T01:07:15.371Z,23.29
2022-08-26T01:07:50.682Z,23.26
2022-08-26T01:08:25.983Z,23.38
2022-08-26T01:09:01.067Z,23.23
2022-08-26T01:09:36.554Z,23.29
2022-08-26T01:10:11.768Z,23.24
2022-08-26T01:10:46.964Z,23.27
2022-08-26T01:11:22.285Z,23.27
2022-08-26T01:11:57.486Z,23.22
2022-08-26T01:12:32.781Z,23.20
2022-08-26T01:13:08.354Z,23.17
2022-08-26T01:13:43.191Z,23.17
2022-08-26T01:14:18.365Z,23.23
2022-08-26T01:14:53.576Z,23.26
2022-08-26T01:15:29.060Z,23.15
2022-08-26T01:16:04.438Z,23.20
2022-08-26T01:16:39.571Z,23.19
2022-08-26T01:17:14.793Z,23.26
2022-08-26T01:17:49.893Z,23.15
2022-08-26T01:18:25.170Z,23.14
2022-08-26T01:19:00.553Z,23.15
2022-08-26T01:19:35.770Z,23.20
2022-08-26T01:20:18.071Z,23.23
2022-08-26T01:20:53.289Z,23.15
2022-08-26T01:21:29.454Z,23.17
2022-08-26T01:22:04.399Z,23.19
2022-08-26T01:22:39.498Z,23.20
2022-08-26T01:23:14.925Z,23.24
2022-08-26T01:23:50.206Z,23.07
2022-08-26T01:24:25.645Z,23.11
2022-08-26T01:25:00.627Z,23.15
2022-08-26T01:25:35.693Z,23.11
2022-08-26T01:26:19.653Z,23.14
2022-08-26T01:26:46.319Z,23.09
2022-08-26T01:27:21.424Z,23.05
2022-08-26T01:27:56.549Z,23.12
2022-08-26T01:28:31.835Z,23.07
2022-08-26T01:29:07.081Z,23.12
2022-08-26T01:29:42.667Z,23.17
2022-08-26T01:30:18.271Z,23.08
2022-08-26T01:30:53.352Z,23.19
2022-08-26T01:31:28.623Z,23.11
2022-08-26T01:32:03.672Z,23.09
2022-08-26T01:32:39.043Z,23.12
2022-08-26T01:33:14.091Z,23.14
2022-08-26T01:33:49.224Z,23.09
2022-08-26T01:34:24.606Z,23.01
2022-08-26T01:34:59.925Z,22.89
2022-08-26T01:35:35.024Z,22.92
2022-08-26T01:36:10.396Z,22.82
2022-08-26T01:36:50.591Z,22.94
2022-08-26T01:37:21.017Z,22.82
2022-08-26T01:37:56.299Z,22.90
2022-08-26T01:38:31.563Z,22.84
2022-08-26T01:39:07.351Z,22.92
2022-08-26T01:39:41.976Z,22.93
2022-08-26T01:40:17.163Z,22.90
2022-08-26T01:40:52.688Z,22.86
2022-08-26T01:41:29.224Z,22.87
2022-08-26T01:42:03.475Z,22.77
2022-08-26T01:42:38.737Z,22.78
2022-08-26T01:43:13.962Z,22.72
2022-08-26T01:43:49.349Z,22.72
2022-08-26T01:44:24.579Z,22.71
2022-08-26T01:44:59.768Z,22.71
2022-08-26T01:45:35.225Z,22.71
2022-08-26T01:46:10.559Z,22.72
2022-08-26T01:46:45.666Z,22.75
2022-08-26T01:47:20.763Z,22.68
2022-08-26T01:47:56.885Z,22.72
2022-08-26T01:48:31.468Z,22.78
2022-08-26T01:49:06.781Z,22.83
2022-08-26T01:49:42.144Z,22.72
2022-08-26T01:50:28.175Z,22.87
2022-08-26T01:50:52.637Z,22.82
2022-08-26T01:51:27.705Z,22.82
2022-08-26T01:52:02.934Z,22.87
2022-08-26T01:52:38.124Z,22.86
2022-08-26T01:53:13.363Z,22.84
2022-08-26T01:53:48.536Z,22.90
2022-08-26T01:54:23.852Z,22.87
2022-08-26T01:54:59.149Z,22.93
2022-08-26T01:55:34.976Z,22.89
2022-08-26T01:56:09.880Z,22.94
2022-08-26T01:56:45.003Z,22.86
2022-08-26T01:57:20.197Z,22.90
2022-08-26T01:57:56.261Z,22.90
2022-08-26T01:58:30.606Z,22.89
2022-08-26T01:59:05.713Z,22.90
2022-08-26T01:59:40.801Z,22.86
2022-08-26T02:00:16.322Z,22.86
2022-08-26T02:00:51.787Z,22.89
2022-08-26T02:01:29.135Z,22.83
2022-08-26T02:02:02.153Z,22.72
2022-08-26T02:02:37.474Z,22.75
2022-08-26T02:03:12.966Z,22.75
2022-08-26T02:03:48.077Z,22.68
2022-08-26T02:04:23.234Z,22.77
2022-08-26T02:04:58.731Z,22.77
2022-08-26T02:05:34.003Z,22.68
2022-08-26T02:06:09.203Z,22.74
2022-08-26T02:06:44.104Z,22.57
2022-08-26T02:07:19.416Z,22.60
2022-08-26T02:07:54.511Z,22.46
2022-08-26T02:08:30.132Z,22.57
2022-08-26T02:09:05.336Z,22.47
2022-08-26T02:09:41.373Z,22.47
2022-08-26T02:10:16.058Z,22.44
2022-08-26T02:10:51.567Z,22.35
2022-08-26T02:11:26.958Z,22.41
2022-08-26T02:12:01.972Z,22.32
2022-08-26T02:12:37.558Z,22.32
2022-08-26T02:13:12.867Z,22.44
2022-08-26T02:13:48.347Z,22.39
2022-08-26T02:14:23.659Z,22.44
2022-08-26T02:14:58.953Z,22.47
2022-08-26T02:15:34.381Z,22.50
2022-08-26T02:16:09.581Z,22.49
2022-08-26T02:16:44.940Z,22.43
2022-08-26T02:17:21.251Z,22.44
2022-08-26T02:17:55.802Z,22.43
2022-08-26T02:18:30.899Z,22.43
2022-08-26T02:19:06.302Z,22.46
2022-08-26T02:19:41.499Z,22.41
2022-08-26T02:20:16.597Z,22.41
2022-08-26T02:20:51.890Z,22.23
2022-08-26T02:21:27.216Z,22.23
2022-08-26T02:22:02.549Z,22.25
2022-08-26T02:22:37.956Z,22.23
2022-08-26T02:23:12.774Z,22.25
2022-08-26T02:23:47.894Z,22.20
2022-08-26T02:24:22.879Z,22.20
2022-08-26T02:24:57.890Z,22.20
2022-08-26T02:25:33.080Z,22.20
2022-08-26T02:26:08.498Z,22.20
2022-08-26T02:26:43.786Z,22.23
2022-08-26T02:27:18.805Z,22.10
2022-08-26T02:27:54.190Z,22.20
2022-08-26T02:28:29.390Z,22.16
2022-08-26T02:29:04.677Z,22.28
2022-08-26T02:29:39.779Z,22.22
2022-08-26T02:30:15.374Z,22.23
2022-08-26T02:30:50.491Z,22.23
2022-08-26T02:31:25.952Z,22.14
2022-08-26T02:32:01.116Z,22.19
2022-08-26T02:32:36.521Z,22.17
2022-08-26T02:33:11.544Z,22.19
2022-08-26T02:33:46.633Z,22.25
2022-08-26T02:34:21.822Z,22.28
2022-08-26T02:34:56.926Z,22.19
2022-08-26T02:35:32.119Z,22.31
2022-08-26T02:36:07.421Z,22.20
2022-08-26T02:36:42.717Z,22.27
2022-08-26T02:37:18.145Z,22.32
2022-08-26T02:37:53.445Z,22.29
2022-08-26T02:38:28.767Z,22.32
2022-08-26T02:39:03.872Z,22.23
2022-08-26T02:39:39.088Z,22.29
2022-08-26T02:40:14.031Z,22.31
2022-08-26T02:40:49.089Z,22.23
2022-08-26T02:41:24.521Z,22.34
2022-08-26T02:41:59.756Z,22.27
2022-08-26T02:42:34.855Z,22.29
2022-08-26T02:43:10.447Z,22.28
2022-08-26T02:43:45.443Z,22.27
2022-08-26T02:44:20.627Z,22.25
2022-08-26T02:44:56.043Z,22.23
2022-08-26T02:45:31.114Z,22.28
2022-08-26T02:46:06.419Z,22.32
2022-08-26T02:46:41.573Z,22.27
2022-08-26T02:47:16.800Z,22.28
2022-08-26T02:47:52.397Z,22.25
2022-08-26T02:48:27.211Z,22.23
2022-08-26T02:49:02.512Z,22.37
2022-08-26T02:49:37.920Z,22.25
2022-08-26T02:50:13.111Z,22.23
2022-08-26T02:50:48.639Z,22.38
2022-08-26T02:51:24.031Z,22.27
2022-08-26T02:51:59.346Z,22.17
2022-08-26T02:52:34.527Z,22.28
2022-08-26T02:53:10.041Z,22.22
2022-08-26T02:53:45.150Z,22.27
2022-08-26T02:54:20.470Z,22.17
2022-08-26T02:54:55.916Z,22.19
2022-08-26T02:55:31.212Z,22.14
2022-08-26T02:56:06.415Z,22.13
2022-08-26T02:56:41.747Z,22.14
2022-08-26T02:57:16.952Z,22.13
2022-08-26T02:57:52.049Z,22.07
2022-08-26T02:58:26.962Z,22.13
2022-08-26T02:59:02.071Z,22.12
2022-08-26T02:59:37.368Z,22.13
2022-08-26T03:00:12.676Z,22.10
2022-08-26T03:00:52.991Z,22.12
2022-08-26T03:01:23.203Z,22.14
2022-08-26T03:01:58.507Z,22.12
2022-08-26T03:02:33.676Z,22.06
2022-08-26T03:03:08.815Z,22.14
2022-08-26T03:03:43.871Z,22.07
2022-08-26T03:04:19.184Z,21.99
2022-08-26T03:04:57.897Z,21.99
2022-08-26T03:05:29.784Z,22.06
2022-08-26T03:06:05.284Z,22.06
2022-08-26T03:06:40.700Z,21.99
2022-08-26T03:07:15.816Z,21.97
2022-08-26T03:07:51.218Z,21.95
2022-08-26T03:08:26.443Z,21.88
2022-08-26T03:09:01.657Z,21.79
2022-08-26T03:09:36.879Z,21.76
2022-08-26T03:10:12.174Z,21.66
2022-08-26T03:10:48.043Z,21.74
2022-08-26T03:11:23.191Z,21.76
2022-08-26T03:11:58.325Z,21.76
2022-08-26T03:12:33.428Z,21.71
2022-08-26T03:13:08.758Z,21.60
2022-08-26T03:13:43.832Z,21.63
2022-08-26T03:14:19.043Z,21.63
2022-08-26T03:14:54.134Z,21.69
2022-08-26T03:15:29.235Z,21.64
2022-08-26T03:16:04.406Z,21.63
2022-08-26T03:16:39.727Z,21.67
2022-08-26T03:17:14.840Z,21.69
2022-08-26T03:17:50.518Z,21.72
2022-08-26T03:18:25.852Z,21.63
2022-08-26T03:19:01.078Z,21.66
2022-08-26T03:19:36.371Z,21.71
2022-08-26T03:20:11.672Z,21.67
2022-08-26T03:20:46.969Z,21.75
2022-08-26T03:21:22.193Z,21.64
2022-08-26T03:21:57.912Z,21.64
2022-08-26T03:22:32.599Z,21.72
2022-08-26T03:23:08.182Z,21.63
2022-08-26T03:23:42.989Z,21.63
2022-08-26T03:24:18.194Z,21.66
2022-08-26T03:24:53.689Z,21.67
2022-08-26T03:25:29.173Z,21.66
2022-08-26T03:26:04.369Z,21.61
2022-08-26T03:26:39.889Z,21.67
2022-08-26T03:27:15.535Z,21.64
2022-08-26T03:27:50.746Z,21.64
2022-08-26T03:28:27.253Z,21.66
2022-08-26T03:29:01.149Z,21.54
2022-08-26T03:29:36.357Z,21.56
2022-08-26T03:30:11.750Z,21.63
2022-08-26T03:30:46.782Z,21.57
2022-08-26T03:31:22.063Z,21.54
2022-08-26T03:31:57.221Z,21.60
2022-08-26T03:32:32.524Z,21.79
2022-08-26T03:33:08.127Z,21.72
2022-08-26T03:33:43.109Z,21.71
2022-08-26T03:34:18.433Z,21.71
2022-08-26T03:34:53.441Z,21.72
2022-08-26T03:35:28.846Z,21.60
2022-08-26T03:36:04.228Z,21.61
2022-08-26T03:36:39.344Z,21.74
2022-08-26T03:37:14.536Z,21.64
2022-08-26T03:37:50.127Z,21.75
2022-08-26T03:38:25.226Z,21.74
2022-08-26T03:39:00.733Z,21.78
2022-08-26T03:39:36.343Z,21.74
2022-08-26T03:40:11.818Z,21.76
2022-08-26T03:40:46.871Z,21.75
2022-08-26T03:41:22.162Z,21.67
2022-08-26T03:41:57.586Z,21.75
2022-08-26T03:42:32.782Z,21.64
2022-08-26T03:43:09.536Z,21.66
2022-08-26T03:43:43.218Z,21.69
2022-08-26T03:44:18.323Z,21.67
2022-08-26T03:44:53.534Z,21.66
2022-08-26T03:45:29.100Z,21.66
2022-08-26T03:46:04.269Z,21.61
2022-08-26T03:46:39.518Z,21.71
2022-08-26T03:47:14.845Z,21.60
2022-08-26T03:47:50.143Z,21.64
2022-08-26T03:48:25.641Z,21.63
2022-08-26T03:49:00.552Z,21.64
2022-08-26T03:49:35.539Z,21.63
2022-08-26T03:50:10.655Z,21.64
2022-08-26T03:50:45.842Z,21.63
2022-08-26T03:51:21.258Z,21.53
2022-08-26T03:51:56.666Z,21.60
2022-08-26T03:52:31.953Z,21.51
2022-08-26T03:53:11.762Z,21.59
2022-08-26T03:53:42.446Z,21.60
2022-08-26T03:54:17.646Z,21.53
2022-08-26T03:54:53.036Z,21.59
2022-08-26T03:55:28.550Z,21.50
2022-08-26T03:56:03.871Z,21.50
2022-08-26T03:56:38.899Z,21.42
2022-08-26T03:57:14.199Z,21.42
2022-08-26T03:57:49.199Z,21.39
2022-08-26T03:58:24.101Z,21.36
2022-08-26T03:58:59.297Z,21.39
2022-08-26T03:59:34.801Z,21.50
2022-08-26T04:00:10.199Z,21.42
2022-08-26T04:00:45.324Z,21.44
2022-08-26T04:01:20.833Z,21.38
2022-08-26T04:01:55.870Z,21.34
2022-08-26T04:02:31.413Z,21.26
2022-08-26T04:03:06.624Z,21.29
2022-08-26T04:03:41.670Z,21.32
2022-08-26T04:04:16.751Z,21.29
2022-08-26T04:04:52.079Z,21.30
2022-08-26T04:05:27.087Z,21.34
2022-08-26T04:06:02.487Z,21.30
2022-08-26T04:06:37.819Z,21.26
2022-08-26T04:07:13.003Z,21.35
2022-08-26T04:07:48.598Z,21.41
2022-08-26T04:08:23.523Z,21.32
2022-08-26T04:08:59.197Z,21.48
2022-08-26T04:09:35.233Z,21.35
2022-08-26T04:10:09.892Z,21.36
2022-08-26T04:10:45.201Z,21.46
2022-08-26T04:11:20.474Z,21.36
2022-08-26T04:11:55.679Z,21.51
2022-08-26T04:12:30.872Z,21.39
2022-08-26T04:13:06.003Z,21.38
2022-08-26T04:13:40.912Z,21.38
2022-08-26T04:14:17.649Z,21.39
2022-08-26T04:14:51.492Z,21.44
2022-08-26T04:15:27.129Z,21.36
2022-08-26T04:16:02.591Z,21.45
2022-08-26T04:16:38.035Z,21.38
2022-08-26T04:17:13.557Z,21.35
2022-08-26T04:17:48.951Z,21.35
2022-08-26T04:18:24.146Z,21.41
2022-08-26T04:18:59.360Z,21.36
2022-08-26T04:19:34.649Z,21.34
2022-08-26T04:20:09.960Z,21.35
2022-08-26T04:20:45.064Z,21.42
2022-08-26T04:21:20.578Z,21.35
2022-08-26T04:21:55.801Z,21.44
2022-08-26T04:22:31.201Z,21.36
2022-08-26T04:23:06.558Z,21.38
2022-08-26T04:23:47.654Z,21.24
2022-08-26T04:24:17.660Z,21.30
2022-08-26T04:24:52.167Z,21.39
2022-08-26T04:25:27.279Z,21.35
2022-08-26T04:26:02.176Z,21.26
2022-08-26T04:26:39.525Z,21.39
2022-08-26T04:27:12.969Z,21.46
2022-08-26T04:27:48.172Z,21.38
2022-08-26T04:28:23.259Z,21.38
2022-08-26T04:28:58.246Z,21.35
2022-08-26T04:29:33.665Z,21.36
2022-08-26T04:30:09.597Z,21.35
2022-08-26T04:30:44.683Z,21.24
2022-08-26T04:31:20.138Z,21.21
2022-08-26T04:31:55.802Z,21.23
2022-08-26T04:32:30.244Z,21.24
2022-08-26T04:33:12.928Z,21.23
2022-08-26T04:33:41.856Z,21.27
2022-08-26T04:34:16.586Z,21.27
2022-08-26T04:34:51.710Z,21.20
2022-08-26T04:35:26.881Z,21.26
2022-08-26T04:36:02.120Z,21.11
2022-08-26T04:36:37.411Z,21.23
2022-08-26T04:37:12.638Z,21.20
2022-08-26T04:37:47.619Z,21.21
2022-08-26T04:38:22.855Z,21.26
2022-08-26T04:38:58.155Z,21.19
2022-08-26T04:39:33.276Z,21.23
2022-08-26T04:40:08.570Z,21.21
2022-08-26T04:40:46.751Z,21.17
2022-08-26T04:41:19.329Z,21.16
2022-08-26T04:41:54.747Z,21.16
2022-08-26T04:42:29.854Z,21.09
2022-08-26T04:43:05.135Z,21.09
2022-08-26T04:43:39.859Z,21.17
2022-08-26T04:44:14.966Z,21.21
2022-08-26T04:44:50.085Z,21.11
2022-08-26T04:45:25.115Z,21.06
2022-08-26T04:46:00.204Z,21.23
2022-08-26T04:46:35.519Z,21.09
2022-08-26T04:47:10.966Z,21.21
2022-08-26T04:47:46.374Z,21.20
2022-08-26T04:48:21.908Z,21.21
2022-08-26T04:48:56.996Z,21.24
2022-08-26T04:49:35.541Z,21.29
2022-08-26T04:50:07.860Z,21.19
2022-08-26T04:50:43.064Z,21.20
2022-08-26T04:51:18.371Z,21.21
2022-08-26T04:51:53.674Z,21.27
2022-08-26T04:52:28.885Z,21.24
2022-08-26T04:53:04.003Z,21.27
2022-08-26T04:53:39.455Z,21.29
2022-08-26T04:54:15.050Z,21.24
2022-08-26T04:54:50.476Z,21.29
2022-08-26T04:55:38.537Z,21.19
2022-08-26T04:56:00.908Z,21.24
2022-08-26T04:56:36.254Z,21.26
2022-08-26T04:57:11.633Z,21.34
2022-08-26T04:57:46.853Z,21.30
2022-08-26T04:58:22.292Z,21.29
2022-08-26T04:58:57.729Z,21.35
2022-08-26T04:59:36.012Z,21.32
2022-08-26T05:00:08.450Z,21.29
2022-08-26T05:00:43.491Z,21.30
2022-08-26T05:01:18.645Z,21.27
2022-08-26T05:01:54.128Z,21.20
2022-08-26T05:02:29.455Z,21.26
2022-08-26T05:03:04.726Z,21.24
2022-08-26T05:03:40.146Z,21.19
2022-08-26T05:04:16.207Z,21.19
2022-08-26T05:04:51.893Z,21.29
2022-08-26T05:05:25.760Z,21.23
2022-08-26T05:06:01.051Z,21.24
2022-08-26T05:06:37.198Z,21.13
2022-08-26T05:07:11.996Z,21.17
2022-08-26T05:07:47.429Z,21.19
2022-08-26T05:08:22.631Z,21.24
2022-08-26T05:08:58.157Z,21.11
2022-08-26T05:09:33.454Z,21.21
2022-08-26T05:10:08.918Z,21.26
2022-08-26T05:10:43.800Z,21.23
2022-08-26T05:11:19.324Z,21.23
2022-08-26T05:11:54.913Z,21.21
2022-08-26T05:12:30.155Z,21.21
2022-08-26T05:13:05.451Z,21.26
2022-08-26T05:13:40.878Z,21.24
2022-08-26T05:14:15.898Z,21.17
2022-08-26T05:14:51.124Z,21.16
2022-08-26T05:15:26.322Z,21.17
2022-08-26T05:16:01.965Z,21.21
2022-08-26T05:16:37.463Z,21.19
2022-08-26T05:17:14.991Z,21.20
2022-08-26T05:17:48.044Z,21.16
2022-08-26T05:18:23.286Z,21.20
2022-08-26T05:18:58.882Z,21.23
2022-08-26T05:19:34.023Z,21.23
2022-08-26T05:20:09.534Z,21.26
2022-08-26T05:20:44.887Z,21.20
2022-08-26T05:21:20.547Z,21.24
2022-08-26T05:21:55.885Z,21.21
2022-08-26T05:22:31.292Z,21.23
2022-08-26T05:23:06.933Z,21.26
2022-08-26T05:23:42.166Z,21.21
2022-08-26T05:24:17.907Z,21.19
2022-08-26T05:24:52.596Z,21.24
2022-08-26T05:25:27.811Z,21.20
2022-08-26T05:26:04.942Z,21.20
2022-08-26T05:26:38.460Z,21.27
2022-08-26T05:27:13.539Z,21.19
2022-08-26T05:27:48.770Z,21.20
2022-08-26T05:28:23.786Z,21.20
2022-08-26T05:28:58.901Z,21.19
2022-08-26T05:29:34.305Z,21.24
2022-08-26T05:30:09.822Z,21.30
2022-08-26T05:30:44.996Z,21.32
2022-08-26T05:31:20.309Z,21.23
2022-08-26T05:31:56.028Z,21.30
2022-08-26T05:32:30.984Z,21.35
2022-08-26T05:33:06.214Z,21.38
2022-08-26T05:33:41.674Z,21.35
2022-08-26T05:34:16.875Z,21.30
2022-08-26T05:34:52.295Z,21.36
2022-08-26T05:35:27.527Z,21.34
2022-08-26T05:36:02.731Z,21.30
2022-08-26T05:36:38.052Z,21.35
2022-08-26T05:37:13.679Z,21.39
2022-08-26T05:37:48.067Z,21.45
2022-08-26T05:38:23.332Z,21.48
2022-08-26T05:38:58.374Z,21.53
2022-08-26T05:39:33.429Z,21.48
2022-08-26T05:40:08.949Z,21.39
2022-08-26T05:40:44.149Z,21.48
2022-08-26T05:41:19.571Z,21.41
2022-08-26T05:41:54.777Z,21.34
2022-08-26T05:42:29.887Z,21.17
2022-08-26T05:43:06.204Z,21.20
2022-08-26T05:43:41.601Z,21.20
2022-08-26T05:44:16.989Z,21.09
2022-08-26T05:44:55.391Z,21.13
2022-08-26T05:45:27.436Z,21.11
2022-08-26T05:46:02.641Z,21.11
2022-08-26T05:46:38.114Z,20.95
2022-08-26T05:47:13.272Z,20.98
2022-08-26T05:47:48.521Z,20.91
2022-08-26T05:48:24.438Z,20.90
2022-08-26T05:48:58.920Z,20.84
2022-08-26T05:49:34.346Z,20.86
2022-08-26T05:50:09.645Z,20.77
2022-08-26T05:50:45.156Z,20.86
2022-08-26T05:51:23.982Z,20.84
2022-08-26T05:51:55.617Z,20.74
2022-08-26T05:52:30.916Z,20.72
2022-08-26T05:53:06.037Z,20.79
2022-08-26T05:53:43.988Z,20.71
2022-08-26T05:54:22.084Z,20.77
2022-08-26T05:54:52.254Z,20.74
2022-08-26T05:55:27.588Z,20.69
2022-08-26T05:56:02.874Z,20.74
2022-08-26T05:56:38.093Z,20.74
2022-08-26T05:57:13.396Z,20.72
2022-08-26T05:57:48.513Z,20.71
2022-08-26T05:58:23.743Z,20.68
2022-08-26T05:58:59.727Z,20.64
2022-08-26T05:59:34.202Z,20.68
2022-08-26T06:00:09.318Z,20.64
2022-08-26T06:00:44.531Z,20.76
2022-08-26T06:01:19.700Z,20.71
2022-08-26T06:01:55.354Z,20.64
2022-08-26T06:02:30.295Z,20.71
2022-08-26T06:03:05.726Z,20.74
2022-08-26T06:03:40.802Z,20.76
2022-08-26T06:04:15.954Z,20.74
2022-08-26T06:04:50.994Z,20.69
2022-08-26T06:05:26.107Z,20.69
2022-08-26T06:06:01.316Z,20.76
2022-08-26T06:06:36.443Z,20.77
2022-08-26T06:07:12.083Z,20.84
2022-08-26T06:07:47.240Z,20.83
2022-08-26T06:08:22.502Z,20.80
2022-08-26T06:09:05.626Z,20.84
2022-08-26T06:09:41.336Z,20.83
2022-08-26T06:10:31.688Z,20.81
2022-08-26T06:10:51.541Z,20.87
2022-08-26T06:11:26.897Z,20.89
2022-08-26T06:12:02.261Z,20.91
2022-08-26T06:12:37.989Z,20.91
2022-08-26T06:13:13.691Z,20.89
2022-08-26T06:13:48.956Z,20.98
2022-08-26T06:14:24.263Z,20.95
2022-08-26T06:14:59.270Z,20.91
2022-08-26T06:15:34.624Z,20.99
2022-08-26T06:16:09.809Z,20.96
2022-08-26T06:16:45.121Z,20.98
2022-08-26T06:17:20.328Z,21.02
2022-08-26T06:17:55.741Z,21.04
2022-08-26T06:18:30.868Z,21.11
2022-08-26T06:19:10.554Z,21.06
2022-08-26T06:19:41.584Z,21.11
2022-08-26T06:20:16.868Z,21.14
2022-08-26T06:20:57.195Z,21.13
2022-08-26T06:21:27.641Z,21.16
2022-08-26T06:22:02.867Z,21.08
2022-08-26T06:22:38.140Z,21.09
2022-08-26T06:23:13.483Z,21.20
2022-08-26T06:23:48.918Z,21.11
2022-08-26T06:24:27.255Z,21.20
2022-08-26T06:24:59.244Z,21.27
2022-08-26T06:25:34.579Z,21.17
2022-08-26T06:26:10.983Z,21.23
2022-08-26T06:26:50.300Z,21.23
2022-08-26T06:27:20.819Z,21.23
2022-08-26T06:27:56.295Z,21.20
2022-08-26T06:28:31.301Z,21.29
2022-08-26T06:29:06.740Z,21.29
2022-08-26T06:29:42.052Z,21.21
2022-08-26T06:30:17.407Z,21.20
2022-08-26T06:30:52.835Z,21.19
2022-08-26T06:31:28.400Z,21.20
2022-08-26T06:32:03.560Z,21.24
2022-08-26T06:32:38.831Z,21.26
2022-08-26T06:33:14.126Z,21.29
2022-08-26T06:33:49.359Z,21.38
2022-08-26T06:34:29.851Z,21.27
2022-08-26T06:34:59.975Z,21.38
2022-08-26T06:35:35.276Z,21.26
2022-08-26T06:36:10.623Z,21.27
2022-08-26T06:36:46.078Z,21.34
2022-08-26T06:37:21.549Z,21.36
2022-08-26T06:37:56.737Z,21.30
2022-08-26T06:38:32.266Z,21.32
2022-08-26T06:39:07.784Z,21.36
2022-08-26T06:39:43.115Z,21.46
2022-08-26T06:40:18.289Z,21.44
2022-08-26T06:40:53.462Z,21.39
2022-08-26T06:41:28.906Z,21.44
2022-08-26T06:42:06.262Z,21.46
2022-08-26T06:42:39.443Z,21.46
2022-08-26T06:43:14.846Z,21.41
2022-08-26T06:43:50.057Z,21.46
2022-08-26T06:44:25.312Z,21.53
2022-08-26T06:45:00.321Z,21.56
2022-08-26T06:45:35.438Z,21.51
2022-08-26T06:46:10.573Z,21.54
2022-08-26T06:46:46.221Z,21.50
2022-08-26T06:47:21.418Z,21.46
2022-08-26T06:47:56.489Z,21.57
2022-08-26T06:48:31.906Z,21.64
2022-08-26T06:49:07.232Z,21.61
2022-08-26T06:49:42.632Z,21.60
2022-08-26T06:50:17.732Z,21.64
2022-08-26T06:50:53.139Z,21.61
2022-08-26T06:51:28.699Z,21.51
2022-08-26T06:52:03.905Z,21.54
2022-08-26T06:52:39.041Z,21.60
2022-08-26T06:53:14.542Z,21.64
2022-08-26T06:53:49.761Z,21.64
2022-08-26T06:54:24.861Z,21.67
2022-08-26T06:55:00.107Z,21.66
2022-08-26T06:55:35.197Z,21.67
2022-08-26T06:56:10.625Z,21.67
2022-08-26T06:56:46.142Z,21.61
2022-08-26T06:57:21.303Z,21.69
2022-08-26T06:57:56.771Z,21.72
2022-08-26T06:58:32.185Z,21.74
2022-08-26T06:59:07.690Z,21.75
2022-08-26T06:59:42.710Z,21.76
2022-08-26T07:00:18.130Z,21.71
2022-08-26T07:00:53.569Z,21.71
2022-08-26T07:01:28.820Z,21.82
2022-08-26T07:02:04.118Z,21.76
2022-08-26T07:02:39.419Z,21.78
2022-08-26T07:03:14.566Z,21.76
2022-08-26T07:03:49.476Z,21.90
2022-08-26T07:04:24.814Z,21.90
2022-08-26T07:05:00.024Z,21.92
2022-08-26T07:05:35.776Z,21.90
2022-08-26T07:06:10.960Z,21.83
2022-08-26T07:06:46.601Z,21.85
2022-08-26T07:07:22.117Z,21.91
2022-08-26T07:07:56.903Z,21.83
2022-08-26T07:08:31.896Z,21.85
2022-08-26T07:09:07.194Z,21.90
2022-08-26T07:09:42.298Z,21.94
2022-08-26T07:10:17.500Z,21.92
2022-08-26T07:10:52.714Z,21.99
2022-08-26T07:11:27.828Z,21.99
2022-08-26T07:12:03.237Z,21.95
2022-08-26T07:12:38.639Z,21.92
2022-08-26T07:13:13.939Z,22.02
2022-08-26T07:13:49.090Z,21.98
2022-08-26T07:14:24.196Z,21.97
2022-08-26T07:14:59.487Z,22.01
2022-08-26T07:15:34.979Z,21.97
2022-08-26T07:16:10.578Z,21.97
2022-08-26T07:16:45.956Z,22.02
2022-08-26T07:17:21.158Z,21.94
2022-08-26T07:17:56.170Z,22.01
2022-08-26T07:18:31.290Z,22.07
2022-08-26T07:19:11.238Z,22.10
2022-08-26T07:19:41.819Z,22.04
2022-08-26T07:20:17.153Z,22.16
2022-08-26T07:20:52.252Z,22.06
2022-08-26T07:21:27.679Z,22.09
2022-08-26T07:22:03.487Z,22.10
2022-08-26T07:22:38.614Z,22.02
2022-08-26T07:23:13.705Z,22.13
2022-08-26T07:23:49.082Z,22.14
2022-08-26T07:24:24.141Z,22.12
2022-08-26T07:24:59.596Z,22.10
2022-08-26T07:25:35.028Z,22.10
2022-08-26T07:26:10.581Z,22.14
2022-08-26T07:26:45.887Z,22.09
2022-08-26T07:27:21.095Z,22.13
2022-08-26T07:27:56.217Z,22.09
2022-08-26T07:28:31.336Z,22.12
2022-08-26T07:29:06.761Z,22.20
2022-08-26T07:29:42.059Z,22.23
2022-08-26T07:30:17.270Z,22.17
2022-08-26T07:30:52.629Z,22.17
2022-08-26T07:31:27.877Z,22.20
2022-08-26T07:32:02.930Z,22.23
2022-08-26T07:32:38.342Z,22.29
2022-08-26T07:33:13.635Z,22.27
2022-08-26T07:33:49.148Z,22.25
2022-08-26T07:34:24.265Z,22.16